Uniontown, WA (99179)

10:20 AM PDT on September 22, 2014 (GMT -0700)
Town of Colton | Change Station
CLOSE
Current Station
Personal Weather Station
Location: Colton, WA
Elevation: 2579 ft
Nearby Weather Stations

Elev 2579 ft 46.57 °N, 117.12 °W | Updated 1 minute ago

Overcast
Overcast
70.3 °F
Feels Like 77 °F
N
0.0
Wind Variable Wind from SE
Gusts 4.0 mph

Today
High -- | Low -- °F
--% Chance of Precip.
Yesterday
High -- | Low -- °F
Precip. -- in
6:35 AM 6:45 PM
Waning Crescent, 2% visible
Pressure 29.92 in
Visibility 10.0 miles
Clouds Clear
Heat Index 77 °F
Dew Point 43 °F
Humidity 37%
Rainfall 0.00 in
Snow Depth 0 in , 0 in , 0 in
UV 3 out of 12
Pollen 7.50 out of 12
Air Quality Not available.
Flu Activity Not available.
METAR KLWS 221656Z 10004KT 10SM CLR 18/08 A2994 RMK AO2 SLP130 T01780078

More Conditions Fewer Conditions

Pressure 29.92 in
Visibility 10.0 miles
Clouds Clear
Heat Index 77 °F
Dew Point 43 °F
Humidity 37%
Rainfall 0.00 in
Snow Depth 0 in , 0 in , 0 in
UV 3 out of 12
Pollen 7.50 out of 12
Air Quality Not available.
Flu Activity Not available.
METAR KLWS 221656Z 10004KT 10SM CLR 18/08 A2994 RMK AO2 SLP130 T01780078

More Conditions Fewer Conditions

10-Day Weather Forecast

Almanac

Astronomy

Sep. 22, 2014 Rise Set
Actual Time 6:35 AM PDT 6:45 PM PDT
Civil Twilight 6:05 AM PDT 7:15 PM PDT
Nautical Twilight 5:29 AM PDT 7:51 PM PDT
Astronomical Twilight 4:53 AM PDT 8:27 PM PDT
Moon 5:04 AM PDT 5:57 PM PDT
Length of Visible Light 13h 10m
Length of Day
12h 10m
Tomorrow will be 3m 17s shorter.
Waning Crescent, 2% of the Moon is Illuminated
Today
Waning Crescent
Sep 24
New
Oct 1
First Quarter
Oct 8
Full
Oct 15
Last Quarter

Today's Extremes

State Highs State Lows

Community

WunderPhotos

Upload Photos

1,755,492 photos uploaded!

WunderBlogs® & News

Nearby

Snow Depth

Station Depth Elevation
Lyman Lake 0 in 5900 ft
Alpine Meadows 0 in 3500 ft
Stampede Pass 0 in 3860 ft
Sourdough Gulch 0 in 4000 ft
White Pass E.S. 0 in 4500 ft

Earthquake Activity

City Distance Mag. Time & Date
No recent earthquake activity has been reported nearby.
Minimum magnitude displayed is 2.5.

Coastal Water Temperatures

Place Temperature
No Stations Reporting

Nearby Weather Stations